createdAt,value
2019-05-17T00:00:01.534Z,1.14
2019-05-17T00:15:01.202Z,1.12
2019-05-17T00:30:01.671Z,1.25
2019-05-17T00:45:02.118Z,1.31
2019-05-17T01:00:01.483Z,1.1
2019-05-17T01:15:01.900Z,1.1
2019-05-17T01:30:01.335Z,1.4
2019-05-17T01:45:02.224Z,1.26
2019-05-17T02:00:01.615Z,1.22
2019-05-17T02:15:02.067Z,1.38
2019-05-17T02:30:02.425Z,1.5
2019-05-17T02:45:02.965Z,1.37
2019-05-17T03:00:04.257Z,1.3
2019-05-17T03:15:03.993Z,1.3
2019-05-17T03:30:03.997Z,1.23
2019-05-17T03:45:02.826Z,1.39
2019-05-17T04:00:03.761Z,1.28
2019-05-17T04:15:03.106Z,1.18
2019-05-17T04:30:03.573Z,1.18
2019-05-17T04:45:03.586Z,1.55
2019-05-17T05:00:04.138Z,2.17
2019-05-17T05:15:03.430Z,3.24
2019-05-17T05:30:03.018Z,3.37
2019-05-17T05:45:03.062Z,3.16
2019-05-17T06:00:02.174Z,3.71
2019-05-17T06:15:02.690Z,2.92
2019-05-17T06:30:01.628Z,2.22
2019-05-17T06:45:02.370Z,1.62
2019-05-17T07:00:03.083Z,1.47
2019-05-17T07:15:02.085Z,1.48
2019-05-17T07:30:01.600Z,1.85
2019-05-17T07:45:02.056Z,1.5
2019-05-17T08:00:01.460Z,1.58
2019-05-17T08:15:01.914Z,1.45
2019-05-17T08:30:01.299Z,1.44
2019-05-17T08:45:01.730Z,1.76
2019-05-17T09:00:02.164Z,1.82
2019-05-17T09:15:01.876Z,1.73
2019-05-17T09:30:01.273Z,1.51
2019-05-17T09:45:01.754Z,1.46
2019-05-17T10:00:01.220Z,1.72
2019-05-17T10:15:01.736Z,1.83
2019-05-17T10:30:02.121Z,1.75
2019-05-17T10:45:01.587Z,1.83
2019-05-17T11:00:02.018Z,1.71
2019-05-17T11:15:10.777Z,1.67
2019-05-17T11:30:01.260Z,1.44
2019-05-17T11:45:01.755Z,1.4
2019-05-17T12:00:01.240Z,1.79
2019-05-17T12:15:01.972Z,1.77
2019-05-17T12:30:01.455Z,1.75
2019-05-17T12:45:01.317Z,1.97
2019-05-17T13:00:01.263Z,1.94
2019-05-17T13:15:01.806Z,2.05
2019-05-17T13:30:01.274Z,2.5
2019-05-17T13:45:01.714Z,2.06
2019-05-17T14:00:02.169Z,1.82
2019-05-17T14:15:01.620Z,1.77
2019-05-17T14:30:02.275Z,1.68
2019-05-17T14:45:01.856Z,1.61
2019-05-17T15:00:01.610Z,1.66
2019-05-17T15:15:02.059Z,1.77
2019-05-17T15:30:01.505Z,1.81
2019-05-17T15:45:02.303Z,1.57
2019-05-17T16:00:01.898Z,1.7
2019-05-17T16:15:02.211Z,1.91
2019-05-17T16:30:02.176Z,1.96
2019-05-17T16:45:01.608Z,1.62
2019-05-17T17:00:02.160Z,1.58
2019-05-17T17:15:01.646Z,1.49
2019-05-17T17:30:02.057Z,1.65
2019-05-17T17:45:01.489Z,1.72
2019-05-17T18:00:01.905Z,1.51
2019-05-17T18:15:03.463Z,1.51
2019-05-17T18:30:01.766Z,1.55
2019-05-17T18:45:02.224Z,1.74
2019-05-17T19:00:01.612Z,1.65
2019-05-17T19:15:02.078Z,1.5
2019-05-17T19:30:01.490Z,1.41
2019-05-17T19:45:01.893Z,1.46
2019-05-17T20:00:01.445Z,1.49
2019-05-17T20:15:15.902Z,1.2
2019-05-17T20:30:01.489Z,1.19
2019-05-17T20:45:01.662Z,1.38
2019-05-17T21:00:02.041Z,1.3
2019-05-17T21:15:01.462Z,1.32
2019-05-17T21:30:01.950Z,1.28
2019-05-17T21:45:01.398Z,1.34
2019-05-17T22:00:01.827Z,1.4
2019-05-17T22:15:01.224Z,1.43
2019-05-17T22:30:01.595Z,1.24
2019-05-17T22:45:02.036Z,1.35
2019-05-17T23:00:01.411Z,1.52
2019-05-17T23:15:01.825Z,1.7
2019-05-17T23:30:01.229Z,1.34
2019-05-17T23:45:01.638Z,1.26
